Time;durP1;ratioP1;P1;durP2;ratioP2;P2;SDS_P1;SDS_P2;PMS_P1;PMS_P2;Temp;Humidity;BMP_temperature;BMP_pressure;BME280_temperature;BME280_humidity;BME280_pressure;Samples;Min_cycle;Max_cycle;Signal;HPM_P1;HPM_P2
2021/08/13 00:00:21;;;;;;;13.30;11.90;;;19.00;99.90;;;;;;2040460;29;20510;-75
2021/08/13 00:01:22;;;;;;;14.52;12.35;;;19.00;99.90;;;;;;2040792;29;20453;-74
2021/08/13 00:02:23;;;;;;;14.18;12.30;;;19.00;99.90;;;;;;2042144;29;20027;-74
2021/08/13 00:03:23;;;;;;;12.73;11.35;;;19.00;99.90;;;;;;2044724;29;20248;-75
2021/08/13 00:04:24;;;;;;;13.38;11.98;;;19.00;99.90;;;;;;2043829;29;20510;-75
2021/08/13 00:05:25;;;;;;;13.45;11.98;;;19.00;99.90;;;;;;2040701;29;20032;-76
2021/08/13 00:06:25;;;;;;;12.65;11.35;;;19.00;99.90;;;;;;2040509;29;20080;-75
2021/08/13 00:07:26;;;;;;;13.32;11.93;;;18.90;99.90;;;;;;2040547;29;20035;-75
2021/08/13 00:08:26;;;;;;;13.20;11.90;;;18.90;99.90;;;;;;2040286;29;20043;-75
2021/08/13 00:09:27;;;;;;;14.10;11.93;;;18.90;99.90;;;;;;2040093;29;20099;-75
2021/08/13 00:10:27;;;;;;;13.27;11.90;;;18.90;99.90;;;;;;2040498;29;20024;-75
2021/08/13 00:11:28;;;;;;;13.55;12.07;;;18.90;99.90;;;;;;2040277;29;20036;-74
2021/08/13 00:12:29;;;;;;;13.07;11.73;;;18.90;99.90;;;;;;2040117;29;20032;-75
2021/08/13 00:13:30;;;;;;;14.20;11.93;;;18.90;99.90;;;;;;2039589;29;20035;-75
2021/08/13 00:14:30;;;;;;;13.82;12.40;;;18.80;99.90;;;;;;2040273;29;20094;-76
2021/08/13 00:15:31;;;;;;;13.50;11.63;;;18.80;99.90;;;;;;2041325;29;20031;-75
2021/08/13 00:16:32;;;;;;;13.48;12.07;;;18.80;99.90;;;;;;2042058;29;20035;-75
2021/08/13 00:17:33;;;;;;;13.20;11.82;;;18.80;99.90;;;;;;2041826;29;20031;-75
2021/08/13 00:18:33;;;;;;;13.68;11.50;;;18.80;99.90;;;;;;2041645;29;20040;-74
2021/08/13 00:19:34;;;;;;;13.82;11.85;;;18.80;99.90;;;;;;2040690;29;20120;-75
2021/08/13 00:20:36;;;;;;;12.70;11.40;;;18.80;99.90;;;;;;2041103;29;20028;-75
2021/08/13 00:21:36;;;;;;;12.38;11.07;;;18.80;99.90;;;;;;2041844;29;20435;-75
2021/08/13 00:22:37;;;;;;;14.50;11.93;;;18.80;99.90;;;;;;2041825;29;20069;-75
2021/08/13 00:23:38;;;;;;;12.82;11.40;;;18.80;99.90;;;;;;2041856;29;20171;-75
2021/08/13 00:24:38;;;;;;;14.40;11.98;;;18.80;99.90;;;;;;2041634;29;20024;-75
2021/08/13 00:25:39;;;;;;;13.55;12.13;;;18.80;99.90;;;;;;2041250;29;20560;-75
2021/08/13 00:26:40;;;;;;;12.85;11.50;;;18.80;99.90;;;;;;2040968;29;20039;-74
2021/08/13 00:27:40;;;;;;;13.32;11.52;;;18.80;99.90;;;;;;2040918;29;20032;-74
2021/08/13 00:28:41;;;;;;;13.18;11.88;;;18.70;99.90;;;;;;2040268;29;20023;-76
2021/08/13 00:29:44;;;;;;;13.18;11.57;;;18.70;99.90;;;;;;2040792;29;20115;-75
2021/08/13 00:30:44;;;;;;;13.23;11.82;;;18.80;99.90;;;;;;2041037;29;20043;-75
2021/08/13 00:31:46;;;;;;;12.68;11.38;;;18.70;99.90;;;;;;2041031;29;20071;-75
2021/08/13 00:32:47;;;;;;;13.20;11.85;;;18.70;99.90;;;;;;2040910;29;20098;-75
2021/08/13 00:33:48;;;;;;;12.85;11.45;;;18.70;99.90;;;;;;2041067;29;20067;-75
2021/08/13 00:34:48;;;;;;;14.00;11.20;;;18.70;99.90;;;;;;2040352;29;20075;-75
2021/08/13 00:35:50;;;;;;;13.25;11.63;;;18.70;99.90;;;;;;2040945;29;20027;-74
2021/08/13 00:36:51;;;;;;;14.52;11.65;;;18.70;99.90;;;;;;2040978;29;20031;-75
2021/08/13 00:37:51;;;;;;;14.63;11.90;;;18.70;99.90;;;;;;2041039;29;20770;-75
2021/08/13 00:38:52;;;;;;;12.82;11.52;;;18.70;99.90;;;;;;2040655;29;20112;-75
2021/08/13 00:39:54;;;;;;;13.10;11.25;;;18.60;99.90;;;;;;2040647;29;20118;-75
2021/08/13 00:40:55;;;;;;;13.82;11.85;;;18.70;99.90;;;;;;2033140;29;20028;-74
2021/08/13 00:41:58;;;;;;;13.63;11.30;;;18.70;99.90;;;;;;2041547;29;20107;-74
2021/08/13 00:42:59;;;;;;;12.88;11.48;;;18.60;99.90;;;;;;2041407;29;20074;-75
2021/08/13 00:43:59;;;;;;;12.45;11.15;;;18.60;99.90;;;;;;2041389;29;20042;-75
2021/08/13 00:45:00;;;;;;;12.85;11.50;;;18.60;99.90;;;;;;2040417;29;20122;-75
2021/08/13 00:46:01;;;;;;;12.75;11.45;;;18.60;99.90;;;;;;2041119;29;20046;-75
2021/08/13 00:47:31;;;;;;;13.07;11.07;;;18.60;99.90;;;;;;2036500;29;20150;-75
2021/08/13 00:48:55;;;;;;;12.93;11.48;;;18.70;99.90;;;;;;2031928;29;20051;-75
2021/08/13 00:50:34;;;;;;;13.43;11.93;;;18.60;99.90;;;;;;2032653;29;20044;-75
2021/08/13 00:51:35;;;;;;;12.70;11.40;;;18.60;99.90;;;;;;2032269;29;20880;-75
2021/08/13 00:52:39;;;;;;;13.48;11.80;;;18.60;99.90;;;;;;2024759;29;20588;-75
2021/08/13 00:53:42;;;;;;;13.02;11.63;;;18.60;99.90;;;;;;2025149;29;20021;-75
2021/08/13 00:54:43;;;;;;;13.65;12.00;;;18.60;99.90;;;;;;2031721;29;20497;-75
2021/08/13 00:55:49;;;;;;;13.48;11.80;;;18.60;99.90;;;;;;2032530;29;20032;-76
2021/08/13 00:57:13;;;;;;;12.52;11.23;;;18.60;99.90;;;;;;2042241;29;20048;-75
2021/08/13 00:58:23;;;;;;;12.70;11.40;;;18.60;99.90;;;;;;2040731;29;20372;-74
2021/08/13 00:59:44;;;;;;;13.77;11.38;;;18.60;99.90;;;;;;2035272;29;20137;-75
2021/08/13 01:00:51;;;;;;;12.30;10.85;;;18.60;99.90;;;;;;2036073;29;20495;-75
2021/08/13 01:01:51;;;;;;;12.68;11.05;;;18.60;99.90;;;;;;2040597;29;20028;-75
2021/08/13 01:02:52;;;;;;;13.35;11.02;;;18.50;99.90;;;;;;2040847;29;20110;-76
2021/08/13 01:03:55;;;;;;;13.63;11.27;;;18.50;99.90;;;;;;2040807;29;20070;-75
2021/08/13 01:04:55;;;;;;;12.98;11.68;;;18.50;99.90;;;;;;2040311;29;20042;-74
2021/08/13 01:05:59;;;;;;;12.13;10.93;;;18.50;99.90;;;;;;2040912;29;20505;-75
2021/08/13 01:07:02;;;;;;;13.00;11.57;;;18.50;99.90;;;;;;2040890;29;20042;-75
2021/08/13 01:08:04;;;;;;;13.98;11.82;;;18.50;99.90;;;;;;2033470;29;20028;-75
2021/08/13 01:09:05;;;;;;;13.52;11.75;;;18.50;99.90;;;;;;2040225;29;20024;-75
2021/08/13 01:10:07;;;;;;;12.88;11.52;;;18.50;99.90;;;;;;2040694;29;20103;-74
2021/08/13 01:11:36;;;;;;;12.80;11.52;;;18.50;99.90;;;;;;2040744;29;20206;-75
2021/08/13 01:13:12;;;;;;;12.68;11.38;;;18.40;99.90;;;;;;2040859;29;20038;-75
2021/08/13 01:14:22;;;;;;;13.68;12.27;;;18.40;99.90;;;;;;2030718;29;20209;-76
2021/08/13 01:15:24;;;;;;;13.18;11.15;;;18.40;99.90;;;;;;2034742;29;20024;-76
2021/08/13 01:16:27;;;;;;;13.80;12.30;;;18.30;99.90;;;;;;2042304;29;20031;-75
2021/08/13 01:17:54;;;;;;;12.55;11.35;;;18.30;99.90;;;;;;2042479;29;20439;-76
2021/08/13 01:19:01;;;;;;;13.05;11.48;;;18.30;99.90;;;;;;2025434;29;20543;-75
2021/08/13 01:20:21;;;;;;;14.02;11.77;;;18.30;99.90;;;;;;2034403;29;20143;-75
2021/08/13 01:21:35;;;;;;;13.05;11.63;;;18.30;99.90;;;;;;2043651;29;20664;-76
2021/08/13 01:22:51;;;;;;;12.70;11.40;;;18.30;99.90;;;;;;2041916;29;20075;-75
2021/08/13 01:23:55;;;;;;;14.85;11.80;;;18.20;99.90;;;;;;2041129;29;20919;-75
2021/08/13 01:25:02;;;;;;;12.73;11.43;;;18.20;99.90;;;;;;2040711;29;20414;-75
2021/08/13 01:26:06;;;;;;;13.90;12.30;;;18.20;99.90;;;;;;2039819;29;20068;-75
2021/08/13 01:27:09;;;;;;;14.32;12.15;;;18.20;99.90;;;;;;2034124;29;20079;-75
2021/08/13 01:28:51;;;;;;;12.90;11.45;;;18.20;99.90;;;;;;2042379;29;20118;-75
2021/08/13 01:30:28;;;;;;;14.23;12.63;;;18.20;99.90;;;;;;2045493;29;20086;-76
2021/08/13 01:31:44;;;;;;;13.88;12.40;;;18.20;99.90;;;;;;2011659;29;20575;-77
2021/08/13 01:33:08;;;;;;;13.63;11.38;;;18.20;99.90;;;;;;2012897;29;20048;-77
2021/08/13 01:34:15;;;;;;;13.45;12.02;;;18.20;99.90;;;;;;2037813;29;20048;-77
2021/08/13 01:35:26;;;;;;;13.20;11.80;;;18.20;99.90;;;;;;2040628;29;20034;-77
2021/08/13 01:36:27;;;;;;;;;;;18.20;99.90;;;;;;2041371;29;20066;-78
2021/08/13 01:37:30;;;;;;;13.48;12.07;;;18.10;99.90;;;;;;2040512;29;19911;-77
2021/08/13 01:38:38;;;;;;;13.95;12.00;;;18.10;99.90;;;;;;2040882;29;20028;-77
2021/08/13 01:39:40;;;;;;;13.68;12.20;;;18.10;99.90;;;;;;2040957;29;20047;-77
2021/08/13 01:40:46;;;;;;;14.18;11.55;;;18.10;99.90;;;;;;2040601;29;20051;-75
2021/08/13 01:41:49;;;;;;;12.85;11.55;;;18.10;99.90;;;;;;2040473;29;20051;-75
2021/08/13 01:42:51;;;;;;;13.20;11.90;;;18.10;99.90;;;;;;2040361;29;20035;-75
2021/08/13 01:43:55;;;;;;;12.50;11.13;;;18.10;99.90;;;;;;2040477;29;20511;-75
2021/08/13 01:44:57;;;;;;;13.32;11.90;;;18.10;99.90;;;;;;2039859;29;20750;-74
2021/08/13 01:46:00;;;;;;;12.48;11.20;;;18.10;99.90;;;;;;2032575;29;20039;-74
2021/08/13 01:47:02;;;;;;;13.63;11.50;;;18.10;99.90;;;;;;2025192;29;20076;-74
2021/08/13 01:48:04;;;;;;;13.05;11.60;;;18.10;99.90;;;;;;2032625;29;20035;-75
2021/08/13 01:49:11;;;;;;;14.18;11.52;;;18.10;99.90;;;;;;2040056;29;20058;-75
2021/08/13 01:50:12;;;;;;;14.57;11.93;;;18.10;99.90;;;;;;2040482;29;20027;-76
2021/08/13 01:51:17;;;;;;;13.27;11.65;;;18.10;99.90;;;;;;2040139;29;20403;-76
2021/08/13 01:52:22;;;;;;;13.10;11.80;;;18.00;99.90;;;;;;2040528;29;20515;-75
2021/08/13 01:53:23;;;;;;;14.00;11.90;;;18.10;99.90;;;;;;2040371;29;20032;-75
2021/08/13 01:54:30;;;;;;;14.45;11.95;;;18.10;99.90;;;;;;2040154;29;20079;-76
2021/08/13 01:55:32;;;;;;;13.40;12.10;;;18.00;99.90;;;;;;2040053;29;20043;-74
2021/08/13 01:56:33;;;;;;;13.68;12.05;;;18.00;99.90;;;;;;2032566;29;20457;-74
2021/08/13 01:57:36;;;;;;;13.15;11.68;;;18.00;99.90;;;;;;2025288;29;20040;-76
2021/08/13 01:58:37;;;;;;;13.25;11.85;;;18.00;99.90;;;;;;2032179;29;20498;-75
2021/08/13 01:59:44;;;;;;;13.32;11.93;;;18.00;99.90;;;;;;2040214;29;20032;-75
2021/08/13 02:00:47;;;;;;;12.73;11.40;;;18.00;99.90;;;;;;2040268;29;20075;-75
2021/08/13 02:01:48;;;;;;;13.25;11.85;;;18.00;99.90;;;;;;2040526;29;20034;-75
2021/08/13 02:02:51;;;;;;;15.10;12.00;;;17.90;99.90;;;;;;2040259;29;20038;-75
2021/08/13 02:03:55;;;;;;;12.82;11.50;;;17.90;99.90;;;;;;2040472;29;20091;-75
2021/08/13 02:04:56;;;;;;;13.60;11.93;;;17.90;99.90;;;;;;2040300;29;20435;-74
2021/08/13 02:05:57;;;;;;;13.55;12.15;;;17.90;99.90;;;;;;2040697;29;20031;-75
2021/08/13 02:06:59;;;;;;;13.35;11.95;;;17.90;99.90;;;;;;2040281;29;20028;-74
2021/08/13 02:08:04;;;;;;;12.70;11.40;;;17.90;99.90;;;;;;2040275;29;20088;-75
2021/08/13 02:09:07;;;;;;;14.68;12.48;;;17.90;99.90;;;;;;2039964;29;20752;-75
2021/08/13 02:10:13;;;;;;;14.18;12.25;;;17.90;99.90;;;;;;2040266;29;20031;-74
2021/08/13 02:11:14;;;;;;;13.52;12.07;;;17.90;99.90;;;;;;2040387;29;20036;-75
2021/08/13 02:12:18;;;;;;;13.85;12.35;;;17.90;99.90;;;;;;2040308;29;20047;-75
2021/08/13 02:13:20;;;;;;;13.02;11.63;;;17.90;99.90;;;;;;2040052;29;20059;-75
2021/08/13 02:14:24;;;;;;;13.15;11.23;;;17.90;99.90;;;;;;2040185;29;20471;-77
2021/08/13 02:15:27;;;;;;;13.30;12.00;;;17.90;99.90;;;;;;2039990;29;20024;-76
2021/08/13 02:16:30;;;;;;;13.00;11.60;;;17.90;99.90;;;;;;2040322;29;20530;-74
2021/08/13 02:17:33;;;;;;;13.02;11.68;;;17.90;99.90;;;;;;2039834;29;20055;-75
2021/08/13 02:18:41;;;;;;;13.43;11.93;;;17.90;99.90;;;;;;2040246;29;20062;-75
2021/08/13 02:19:57;;;;;;;14.07;11.88;;;17.90;99.90;;;;;;2040261;29;20027;-75
2021/08/13 02:21:02;;;;;;;14.57;12.05;;;17.80;99.90;;;;;;2040687;29;20078;-74
2021/08/13 02:22:03;;;;;;;13.60;12.05;;;17.80;99.90;;;;;;2039965;29;20032;-75
2021/08/13 02:23:06;;;;;;;14.05;12.65;;;17.80;99.90;;;;;;2024844;29;20056;-75
2021/08/13 02:24:07;;;;;;;12.60;11.25;;;17.80;99.90;;;;;;2032512;29;20047;-75
2021/08/13 02:25:09;;;;;;;13.65;12.02;;;17.80;99.90;;;;;;2039768;29;20028;-74
2021/08/13 02:26:12;;;;;;;13.02;11.68;;;17.80;99.90;;;;;;2040092;29;20028;-74
2021/08/13 02:27:19;;;;;;;14.77;12.18;;;17.80;99.90;;;;;;2040110;29;20027;-75
2021/08/13 02:28:22;;;;;;;13.80;12.38;;;17.80;99.90;;;;;;2039860;29;20031;-75
2021/08/13 02:29:23;;;;;;;13.48;12.07;;;17.80;99.90;;;;;;2031801;29;20028;-74
2021/08/13 02:30:23;;;;;;;13.68;11.75;;;17.80;99.90;;;;;;2032450;29;20028;-74
2021/08/13 02:31:25;;;;;;;13.40;11.77;;;17.80;99.90;;;;;;2032329;29;20047;-74
2021/08/13 02:32:27;;;;;;;13.38;11.98;;;17.80;99.90;;;;;;2032357;29;20484;-73
2021/08/13 02:33:28;;;;;;;14.30;12.80;;;17.80;99.90;;;;;;2040420;29;20502;-75
2021/08/13 02:34:30;;;;;;;13.77;11.93;;;17.70;99.90;;;;;;2040052;29;20027;-74
2021/08/13 02:35:32;;;;;;;14.75;12.90;;;17.70;99.90;;;;;;2039576;29;20035;-74
2021/08/13 02:36:43;;;;;;;14.63;12.57;;;17.70;99.90;;;;;;2040087;29;20520;-74
2021/08/13 02:37:54;;;;;;;13.70;12.30;;;17.70;99.90;;;;;;2039860;29;20042;-73
2021/08/13 02:39:06;;;;;;;13.65;12.25;;;17.70;99.90;;;;;;2039607;29;20035;-74
2021/08/13 02:40:13;;;;;;;14.68;12.77;;;17.70;99.90;;;;;;2040274;29;20106;-75
2021/08/13 02:41:17;;;;;;;14.05;12.55;;;17.70;99.90;;;;;;2039944;29;20051;-75
2021/08/13 02:42:26;;;;;;;13.88;12.43;;;17.70;99.90;;;;;;2039878;29;20024;-74
2021/08/13 02:43:49;;;;;;;14.88;12.27;;;17.70;99.90;;;;;;2039896;29;20034;-76
2021/08/13 02:44:53;;;;;;;13.85;12.43;;;17.60;99.90;;;;;;2034387;29;20141;-75
2021/08/13 02:45:59;;;;;;;13.98;12.38;;;17.60;99.90;;;;;;2040497;29;20032;-75
2021/08/13 02:47:06;;;;;;;14.18;12.68;;;17.60;99.90;;;;;;2040076;29;20048;-74
2021/08/13 02:48:07;;;;;;;14.90;12.85;;;17.60;99.90;;;;;;2040236;29;20027;-74
2021/08/13 02:49:16;;;;;;;14.90;12.40;;;17.60;99.90;;;;;;2032475;29;20116;-74
2021/08/13 02:50:19;;;;;;;13.98;12.50;;;17.60;99.90;;;;;;2039775;29;20051;-74
2021/08/13 02:51:26;;;;;;;14.50;12.95;;;17.60;99.90;;;;;;2040124;29;20059;-74
2021/08/13 02:52:29;;;;;;;14.50;12.77;;;17.60;99.90;;;;;;2039931;29;20063;-74
2021/08/13 02:53:37;;;;;;;13.30;12.00;;;17.60;99.90;;;;;;2040023;29;20035;-74
2021/08/13 02:54:39;;;;;;;13.85;12.45;;;17.60;99.90;;;;;;2040004;29;20507;-76
2021/08/13 02:55:45;;;;;;;14.20;12.63;;;17.60;99.90;;;;;;2039310;29;20114;-74
2021/08/13 02:56:47;;;;;;;14.07;12.57;;;17.60;99.90;;;;;;2039926;29;20038;-75
2021/08/13 02:57:52;;;;;;;16.33;12.70;;;17.60;99.90;;;;;;2039839;29;20546;-75
2021/08/13 02:58:59;;;;;;;14.38;12.57;;;17.60;99.90;;;;;;2039674;29;20483;-74
2021/08/13 03:00:03;;;;;;;14.30;12.80;;;17.60;99.90;;;;;;2039866;29;20492;-75
2021/08/13 03:01:04;;;;;;;13.85;12.23;;;17.60;99.90;;;;;;2039928;29;20040;-74
2021/08/13 03:02:05;;;;;;;14.18;12.77;;;17.60;99.90;;;;;;2031862;29;20071;-75
2021/08/13 03:03:13;;;;;;;14.10;12.60;;;17.60;99.90;;;;;;2033004;29;20039;-75
2021/08/13 03:04:14;;;;;;;14.52;12.77;;;17.60;99.90;;;;;;2031681;29;20075;-75
2021/08/13 03:05:18;;;;;;;13.40;12.02;;;17.60;99.90;;;;;;2023800;29;20036;-74
2021/08/13 03:06:20;;;;;;;14.30;12.80;;;17.60;99.90;;;;;;2024385;29;20029;-74
2021/08/13 03:07:23;;;;;;;14.40;12.55;;;17.60;99.90;;;;;;2016878;29;20033;-74
2021/08/13 03:08:25;;;;;;;13.38;12.07;;;17.60;99.90;;;;;;2024736;29;20188;-74
2021/08/13 03:09:27;;;;;;;15.63;12.52;;;17.60;99.90;;;;;;2031486;29;20032;-74
2021/08/13 03:10:31;;;;;;;13.50;12.10;;;17.60;99.90;;;;;;2039559;29;20028;-74
2021/08/13 03:11:33;;;;;;;13.07;11.77;;;17.60;99.90;;;;;;2039624;29;20031;-73
2021/08/13 03:12:37;;;;;;;12.68;11.38;;;17.70;99.90;;;;;;2039708;29;20482;-74
2021/08/13 03:13:38;;;;;;;13.07;11.57;;;17.70;99.90;;;;;;2039713;29;20103;-74
2021/08/13 03:14:39;;;;;;;13.27;11.73;;;17.70;99.90;;;;;;2039619;29;20034;-75
2021/08/13 03:15:40;;;;;;;12.63;11.27;;;17.70;99.90;;;;;;2039265;29;20523;-75
2021/08/13 03:16:42;;;;;;;13.13;11.73;;;17.70;99.90;;;;;;2039426;29;20073;-75
2021/08/13 03:17:42;;;;;;;13.30;11.98;;;17.70;99.90;;;;;;2039610;29;20048;-74
2021/08/13 03:18:45;;;;;;;13.45;11.85;;;17.70;99.90;;;;;;2039269;29;20055;-73
2021/08/13 03:19:46;;;;;;;12.98;11.68;;;17.70;99.90;;;;;;2039616;29;20079;-74
2021/08/13 03:20:49;;;;;;;14.57;11.82;;;17.70;99.90;;;;;;2039538;29;20035;-75
2021/08/13 03:21:50;;;;;;;12.73;11.43;;;17.70;99.90;;;;;;2039713;29;20030;-74
2021/08/13 03:22:51;;;;;;;14.50;11.95;;;17.70;99.90;;;;;;2032027;29;20032;-74
2021/08/13 03:23:53;;;;;;;12.57;11.30;;;17.70;99.90;;;;;;2031976;29;20593;-73
2021/08/13 03:24:54;;;;;;;12.48;11.18;;;17.80;99.90;;;;;;2031365;29;20028;-73
2021/08/13 03:25:56;;;;;;;13.70;11.93;;;17.70;99.90;;;;;;2031890;29;20058;-74
2021/08/13 03:26:56;;;;;;;12.75;11.45;;;17.70;99.90;;;;;;2039906;29;20047;-73
2021/08/13 03:27:57;;;;;;;13.02;11.38;;;17.80;99.90;;;;;;2039531;29;20459;-74
2021/08/13 03:28:58;;;;;;;13.02;11.68;;;17.70;99.90;;;;;;2031547;29;20076;-73
2021/08/13 03:29:59;;;;;;;14.15;11.40;;;17.70;99.90;;;;;;2039744;29;20056;-74
2021/08/13 03:31:00;;;;;;;12.82;11.52;;;17.80;99.90;;;;;;2039103;29;20020;-73
2021/08/13 03:32:04;;;;;;;12.60;11.30;;;17.70;99.90;;;;;;2031918;29;20527;-73
2021/08/13 03:33:07;;;;;;;12.63;11.35;;;17.80;99.90;;;;;;2039511;29;20127;-73
2021/08/13 03:34:09;;;;;;;12.40;11.13;;;17.70;99.90;;;;;;2040179;29;20015;-73
2021/08/13 03:35:10;;;;;;;12.55;11.25;;;17.80;99.90;;;;;;2039112;29;20034;-74
2021/08/13 03:36:10;;;;;;;13.02;11.38;;;17.80;99.90;;;;;;2039787;29;20427;-74
2021/08/13 03:37:12;;;;;;;13.40;11.77;;;17.80;99.90;;;;;;2039681;29;20106;-74
2021/08/13 03:38:15;;;;;;;12.43;11.20;;;17.80;99.90;;;;;;2039471;29;20091;-74
2021/08/13 03:39:16;;;;;;;13.38;11.98;;;17.80;99.90;;;;;;2039420;29;20136;-74
2021/08/13 03:40:19;;;;;;;12.55;11.25;;;17.80;99.90;;;;;;2039316;29;20538;-74
2021/08/13 03:41:24;;;;;;;14.38;12.10;;;17.80;99.90;;;;;;2031870;29;20052;-74
2021/08/13 03:42:25;;;;;;;14.27;12.73;;;17.70;99.90;;;;;;2024560;29;20118;-74
2021/08/13 03:43:27;;;;;;;13.40;12.00;;;17.80;99.90;;;;;;2039504;29;20060;-74
2021/08/13 03:44:28;;;;;;;13.20;11.80;;;17.70;99.90;;;;;;2039818;29;20028;-74
2021/08/13 03:45:29;;;;;;;13.73;12.30;;;17.70;99.90;;;;;;2039031;29;20148;-73
2021/08/13 03:46:31;;;;;;;13.98;12.57;;;17.80;99.90;;;;;;2039537;29;20130;-73
2021/08/13 03:47:36;;;;;;;13.68;12.13;;;17.70;99.90;;;;;;2039530;29;20542;-73
2021/08/13 03:48:37;;;;;;;14.68;12.70;;;17.70;99.90;;;;;;2039077;29;20036;-74
2021/08/13 03:49:38;;;;;;;14.23;12.35;;;17.70;99.90;;;;;;2038518;29;20043;-74
2021/08/13 03:50:40;;;;;;;13.05;11.75;;;17.70;99.90;;;;;;2039585;29;20035;-74
2021/08/13 03:51:41;;;;;;;14.55;12.00;;;17.70;99.90;;;;;;2039570;29;20134;-74
2021/08/13 03:52:41;;;;;;;13.98;11.90;;;17.70;99.90;;;;;;2039442;29;20051;-74
2021/08/13 03:53:42;;;;;;;13.60;11.93;;;17.70;99.90;;;;;;2031583;29;20127;-75
2021/08/13 03:54:43;;;;;;;13.02;11.57;;;17.70;99.90;;;;;;2031144;29;20032;-74
2021/08/13 03:55:44;;;;;;;14.32;12.43;;;17.60;99.90;;;;;;2039579;29;20040;-74
2021/08/13 03:56:46;;;;;;;13.75;12.30;;;17.60;99.90;;;;;;2039579;29;20028;-75
2021/08/13 03:57:47;;;;;;;13.38;11.98;;;17.60;99.90;;;;;;2039594;29;20035;-73
2021/08/13 03:58:47;;;;;;;13.90;12.40;;;17.60;99.90;;;;;;2039397;29;20083;-74
2021/08/13 03:59:48;;;;;;;13.55;12.15;;;17.60;99.90;;;;;;2039690;29;20058;-75
2021/08/13 04:00:49;;;;;;;14.60;12.30;;;17.60;99.90;;;;;;2039637;29;20051;-75
2021/08/13 04:01:51;;;;;;;16.25;12.40;;;17.60;99.90;;;;;;2039616;29;20053;-74
2021/08/13 04:02:52;;;;;;;13.73;12.32;;;17.60;99.90;;;;;;2039837;29;20583;-74
2021/08/13 04:03:56;;;;;;;14.48;12.02;;;17.60;99.90;;;;;;2044415;29;20042;-75
2021/08/13 04:04:57;;;;;;;14.85;12.48;;;17.60;99.90;;;;;;2043104;29;20074;-74
2021/08/13 04:05:57;;;;;;;13.35;11.95;;;17.50;99.90;;;;;;2040453;29;20526;-74
2021/08/13 04:06:58;;;;;;;13.70;12.30;;;17.50;99.90;;;;;;2040454;29;20027;-73
2021/08/13 04:07:59;;;;;;;14.68;12.77;;;17.50;99.90;;;;;;2042835;29;20083;-74
2021/08/13 04:09:00;;;;;;;14.32;12.50;;;17.50;99.90;;;;;;2041265;29;20031;-74
2021/08/13 04:10:01;;;;;;;14.25;12.75;;;17.60;99.90;;;;;;2034181;29;20028;-74
2021/08/13 04:11:02;;;;;;;14.27;12.77;;;17.50;99.90;;;;;;2037634;29;20056;-74
2021/08/13 04:12:03;;;;;;;14.90;12.70;;;17.60;99.90;;;;;;2046052;29;20036;-75
2021/08/13 04:13:07;;;;;;;15.73;12.98;;;17.50;99.90;;;;;;2042100;29;20024;-74
2021/08/13 04:14:13;;;;;;;14.05;12.55;;;17.60;99.90;;;;;;2035569;29;20555;-74
2021/08/13 04:15:14;;;;;;;14.70;12.95;;;17.60;99.90;;;;;;2044760;29;20082;-74
2021/08/13 04:16:14;;;;;;;14.60;12.63;;;17.60;99.90;;;;;;2048986;29;20024;-74
2021/08/13 04:17:16;;;;;;;13.80;12.00;;;17.60;99.90;;;;;;2049971;28;20032;-74
2021/08/13 04:18:18;;;;;;;14.52;12.48;;;17.60;99.90;;;;;;2051073;28;20016;-73
2021/08/13 04:19:18;;;;;;;16.75;13.10;;;17.60;99.90;;;;;;2044895;29;20395;-76
2021/08/13 04:20:19;;;;;;;17.08;12.55;;;17.60;99.90;;;;;;2041796;29;20023;-75
2021/08/13 04:21:27;;;;;;;16.25;12.80;;;17.70;99.90;;;;;;2041180;29;20043;-77
2021/08/13 04:22:28;;;;;;;13.93;12.52;;;17.70;99.90;;;;;;2040890;29;20491;-76
2021/08/13 04:23:29;;;;;;;16.52;13.50;;;17.70;99.90;;;;;;2041824;29;20047;-76
2021/08/13 04:24:32;;;;;;;14.68;12.73;;;17.70;99.90;;;;;;2041094;29;20039;-76
2021/08/13 04:25:32;;;;;;;14.63;12.95;;;17.70;99.90;;;;;;2040311;29;20038;-75
2021/08/13 04:26:33;;;;;;;14.57;12.77;;;17.70;99.90;;;;;;2041675;29;20036;-76
2021/08/13 04:27:34;;;;;;;16.05;12.90;;;17.70;99.90;;;;;;2042054;29;20028;-76
2021/08/13 04:28:34;;;;;;;15.77;13.35;;;17.80;99.90;;;;;;2041781;29;20154;-76
2021/08/13 04:29:36;;;;;;;14.30;12.80;;;17.80;99.90;;;;;;2034259;29;20028;-76
2021/08/13 04:30:37;;;;;;;15.65;12.63;;;17.80;99.90;;;;;;2042211;29;20023;-77
2021/08/13 04:31:39;;;;;;;15.07;13.48;;;17.90;99.90;;;;;;2034540;29;20032;-77
2021/08/13 04:32:42;;;;;;;14.40;12.48;;;17.90;99.90;;;;;;2042252;29;20039;-76
2021/08/13 04:33:45;;;;;;;14.60;13.10;;;18.00;99.90;;;;;;2042116;29;20030;-77
2021/08/13 04:34:54;;;;;;;16.55;12.93;;;18.00;99.90;;;;;;2040310;29;20034;-75
2021/08/13 04:35:56;;;;;;;16.05;13.48;;;18.00;99.90;;;;;;2039569;29;20486;-75
2021/08/13 04:36:57;;;;;;;18.90;12.77;;;18.10;99.90;;;;;;2031420;29;20062;-75
2021/08/13 04:37:58;;;;;;;13.82;12.32;;;18.20;99.90;;;;;;2039417;29;20027;-75
2021/08/13 04:38:59;;;;;;;13.40;12.00;;;18.40;99.90;;;;;;2031466;29;20083;-75
2021/08/13 04:40:06;;;;;;;13.70;12.13;;;18.50;99.90;;;;;;2039429;29;20032;-75
2021/08/13 04:41:12;;;;;;;13.40;11.73;;;18.80;99.90;;;;;;2039632;29;20019;-75
2021/08/13 04:42:15;;;;;;;15.43;12.00;;;18.90;99.90;;;;;;2039385;29;20038;-75
2021/08/13 04:43:16;;;;;;;15.00;12.07;;;19.10;99.90;;;;;;2039331;29;20020;-74
2021/08/13 04:44:17;;;;;;;18.15;11.90;;;19.30;99.90;;;;;;2039025;29;20458;-75
2021/08/13 04:45:18;;;;;;;18.05;11.63;;;19.40;99.80;;;;;;2039174;29;20031;-75
2021/08/13 04:46:20;;;;;;;19.65;11.95;;;19.60;99.20;;;;;;2039495;29;20024;-75
2021/08/13 04:47:24;;;;;;;17.05;11.43;;;19.80;98.30;;;;;;2039681;29;20399;-75
2021/08/13 04:48:29;;;;;;;14.93;11.18;;;19.90;97.10;;;;;;2039467;29;20520;-75
2021/08/13 04:49:32;;;;;;;19.33;12.30;;;19.90;96.20;;;;;;2039021;29;20028;-75
2021/08/13 04:50:33;;;;;;;19.88;11.82;;;19.90;95.70;;;;;;2039201;29;20047;-75
2021/08/13 04:51:39;;;;;;;22.50;12.23;;;19.80;95.60;;;;;;2039373;29;20123;-75
2021/08/13 04:52:49;;;;;;;17.23;11.65;;;19.80;95.90;;;;;;2039504;29;20691;-74
2021/08/13 04:53:50;;;;;;;21.95;12.10;;;19.60;96.10;;;;;;2039240;29;20035;-76
2021/08/13 04:54:51;;;;;;;19.52;12.63;;;19.50;96.30;;;;;;2030934;29;20368;-75
2021/08/13 04:55:52;;;;;;;23.35;12.18;;;19.40;96.80;;;;;;2039625;29;20031;-76
2021/08/13 04:56:56;;;;;;;20.38;11.82;;;19.30;97.40;;;;;;2031831;29;20527;-75
2021/08/13 04:57:56;;;;;;;15.68;11.73;;;19.20;97.80;;;;;;2040683;29;20066;-75
2021/08/13 04:59:00;;;;;;;18.20;12.00;;;19.10;98.30;;;;;;2039408;29;20023;-75
2021/08/13 05:00:19;;;;;;;17.02;11.90;;;19.00;98.70;;;;;;2042270;29;20032;-75
2021/08/13 05:01:19;;;;;;;18.20;12.05;;;18.90;99.10;;;;;;2041114;29;20051;-74
2021/08/13 05:02:22;;;;;;;16.60;12.00;;;18.80;99.60;;;;;;2033655;29;20477;-75
2021/08/13 05:03:23;;;;;;;15.35;11.80;;;18.80;99.80;;;;;;2033861;29;20028;-73
2021/08/13 05:04:25;;;;;;;18.65;12.07;;;18.70;99.90;;;;;;2033216;29;20155;-76
2021/08/13 05:05:25;;;;;;;14.60;11.32;;;18.70;99.90;;;;;;2033089;29;20489;-75
2021/08/13 05:06:29;;;;;;;17.83;12.18;;;18.60;99.90;;;;;;2042104;29;20024;-78
2021/08/13 05:07:30;;;;;;;15.50;12.18;;;18.60;99.90;;;;;;2040969;29;20036;-74
2021/08/13 05:08:31;;;;;;;15.32;11.63;;;18.60;99.90;;;;;;2040729;29;20096;-75
2021/08/13 05:09:33;;;;;;;16.33;12.20;;;18.50;99.90;;;;;;2041104;29;20034;-75
2021/08/13 05:10:37;;;;;;;18.23;12.38;;;18.50;99.90;;;;;;2033085;29;20051;-75
2021/08/13 05:11:38;;;;;;;17.20;12.10;;;18.50;99.90;;;;;;2033414;29;20151;-75
2021/08/13 05:12:40;;;;;;;15.88;11.77;;;18.50;99.90;;;;;;2032863;29;20032;-74
2021/08/13 05:13:41;;;;;;;16.58;12.15;;;18.40;99.90;;;;;;2040772;29;20031;-74
2021/08/13 05:14:44;;;;;;;15.88;12.00;;;18.40;99.90;;;;;;2040125;29;20684;-75
2021/08/13 05:15:45;;;;;;;14.52;11.57;;;18.50;99.90;;;;;;2040785;29;20031;-75
2021/08/13 05:16:47;;;;;;;19.17;12.35;;;18.50;99.90;;;;;;2041065;29;20491;-76
2021/08/13 05:17:49;;;;;;;14.70;11.70;;;18.50;99.90;;;;;;2040756;29;20070;-75
2021/08/13 05:18:50;;;;;;;16.60;11.95;;;18.50;99.90;;;;;;2040563;29;20031;-76
2021/08/13 05:19:50;;;;;;;14.07;11.15;;;18.50;99.90;;;;;;2040692;29;20034;-76
2021/08/13 05:20:51;;;;;;;16.63;11.68;;;18.50;99.90;;;;;;2040768;29;20467;-75
2021/08/13 05:21:52;;;;;;;13.73;10.98;;;18.50;99.90;;;;;;2040986;29;20056;-76
2021/08/13 05:22:59;;;;;;;12.27;10.98;;;18.60;99.90;;;;;;2034099;29;20024;-77
2021/08/13 05:24:00;;;;;;;14.10;10.18;;;18.60;99.90;;;;;;2041233;29;20028;-76